createdAt,value
2022-09-20T00:01:22.953Z,100465.94
2022-09-20T00:03:54.811Z,100479.94
2022-09-20T00:06:23.679Z,100468.25
2022-09-20T00:08:50.956Z,100471.22
2022-09-20T00:11:23.127Z,100474.75
2022-09-20T00:13:51.469Z,100479.34
2022-09-20T00:16:27.643Z,100474.94
2022-09-20T00:18:57.235Z,100475.16
2022-09-20T00:21:28.853Z,100482.22
2022-09-20T00:23:57.402Z,100490.56
2022-09-20T00:26:25.244Z,100484.44
2022-09-20T00:28:52.075Z,100486.06
2022-09-20T00:31:19.199Z,100494.37
2022-09-20T00:34:18.544Z,100486.44
2022-09-20T00:36:45.412Z,100479.25
2022-09-20T00:39:14.093Z,100485.47
2022-09-20T00:41:40.983Z,100491.03
2022-09-20T00:44:43.242Z,100484.72
2022-09-20T00:47:28.656Z,100486.62
2022-09-20T00:50:21.884Z,100492.97
2022-09-20T00:52:52.146Z,100487.69
2022-09-20T00:55:19.432Z,100491.34
2022-09-20T00:57:46.861Z,100492.38
2022-09-20T01:00:14.633Z,100498.88
2022-09-20T01:02:46.154Z,100488.25
2022-09-20T01:05:14.521Z,100489.13
2022-09-20T01:07:42.822Z,100487.44
2022-09-20T01:10:09.713Z,100482.19
2022-09-20T01:12:36.979Z,100475.97
2022-09-20T01:15:05.646Z,100477.97
2022-09-20T01:17:34.743Z,100473.56
2022-09-20T01:20:13.501Z,100479.31
2022-09-20T01:23:02.295Z,100472.22
2022-09-20T01:25:50.625Z,100473.09
2022-09-20T01:28:17.558Z,100464.28
2022-09-20T01:30:49.821Z,100467.72
2022-09-20T01:34:03.294Z,100474.91
2022-09-20T01:36:42.712Z,100480.34
2022-09-20T01:39:28.212Z,100490.59
2022-09-20T01:41:59.867Z,100494.91
2022-09-20T01:44:49.644Z,100498.50
2022-09-20T01:47:22.366Z,100500.25
2022-09-20T01:50:40.089Z,100503.97
2022-09-20T01:53:31.388Z,100508.56
2022-09-20T01:56:13.120Z,100512.19
2022-09-20T01:59:22.116Z,100511.59
2022-09-20T02:01:53.655Z,100513.50
2022-09-20T02:04:32.592Z,100516.56
2022-09-20T02:07:43.517Z,100519.91
2022-09-20T02:10:32.470Z,100524.22
2022-09-20T02:13:07.204Z,100517.88
2022-09-20T02:15:38.529Z,100517.28
2022-09-20T02:18:30.062Z,100524.34
2022-09-20T02:21:24.193Z,100522.81
2022-09-20T02:24:02.796Z,100524.53
2022-09-20T02:26:59.537Z,100533.53
2022-09-20T02:29:33.735Z,100537.00
2022-09-20T02:32:06.093Z,100543.38
2022-09-20T02:34:55.043Z,100542.25
2022-09-20T02:38:06.463Z,100533.28
2022-09-20T02:40:55.065Z,100528.66
2022-09-20T02:43:35.987Z,100519.00
2022-09-20T02:46:21.630Z,100530.50
2022-09-20T02:49:17.358Z,100506.50
2022-09-20T02:51:50.252Z,100510.09
2022-09-20T02:54:30.728Z,100516.31
2022-09-20T02:57:04.098Z,100518.06
2022-09-20T02:59:41.065Z,100513.81
2022-09-20T03:02:46.492Z,100521.09
2022-09-20T03:05:52.318Z,100527.22
2022-09-20T03:08:45.310Z,100528.34
2022-09-20T03:12:03.300Z,100530.06
2022-09-20T03:14:35.413Z,100525.50
2022-09-20T03:17:22.699Z,100521.47
2022-09-20T03:20:10.753Z,100537.91
2022-09-20T03:23:01.866Z,100533.34
2022-09-20T03:26:02.807Z,100542.25
2022-09-20T03:28:55.476Z,100552.88
2022-09-20T03:32:04.098Z,100549.84
2022-09-20T03:34:46.191Z,100561.91
2022-09-20T03:37:20.489Z,100554.47
2022-09-20T03:39:50.229Z,100556.28
2022-09-20T03:42:23.462Z,100550.06
2022-09-20T03:45:20.984Z,100556.38
2022-09-20T03:48:12.626Z,100560.88
2022-09-20T03:51:04.692Z,100557.50
2022-09-20T03:53:53.624Z,100560.38
2022-09-20T03:56:23.114Z,100548.81
2022-09-20T03:59:08.326Z,100544.56
2022-09-20T04:01:51.233Z,100546.38
2022-09-20T04:04:47.274Z,100547.41
2022-09-20T04:07:38.911Z,100553.91
2022-09-20T04:10:16.508Z,100554.69
2022-09-20T04:12:48.919Z,100558.41
2022-09-20T04:15:37.640Z,100558.66
2022-09-20T04:18:32.464Z,100557.19
2022-09-20T04:21:08.161Z,100560.84
2022-09-20T04:24:09.128Z,100564.62
2022-09-20T04:26:41.132Z,100562.31
2022-09-20T04:29:31.134Z,100562.59
2022-09-20T04:32:24.680Z,100565.16
2022-09-20T04:35:35.218Z,100557.41
2022-09-20T04:38:06.861Z,100561.72
2022-09-20T04:40:55.290Z,100559.31
2022-09-20T04:44:03.579Z,100561.91
2022-09-20T04:46:33.690Z,100557.12
2022-09-20T04:49:28.138Z,100554.44
2022-09-20T04:52:16.567Z,100553.59
2022-09-20T04:55:01.384Z,100558.78
2022-09-20T04:57:46.901Z,100558.69
2022-09-20T05:00:19.414Z,100556.34
2022-09-20T05:03:08.086Z,100555.31
2022-09-20T05:06:04.777Z,100558.50
2022-09-20T05:08:58.755Z,100562.63
2022-09-20T05:11:47.026Z,100563.13
2022-09-20T05:14:28.727Z,100562.31
2022-09-20T05:17:22.566Z,100555.47
2022-09-20T05:20:19.025Z,100557.31
2022-09-20T05:23:09.068Z,100562.97
2022-09-20T05:25:52.193Z,100569.75
2022-09-20T05:28:33.944Z,100565.16
2022-09-20T05:31:34.469Z,100558.19
2022-09-20T05:34:29.351Z,100541.78
2022-09-20T05:37:05.982Z,100539.03
2022-09-20T05:39:58.749Z,100529.91
2022-09-20T05:42:32.722Z,100534.00
2022-09-20T05:45:21.593Z,100538.25
2022-09-20T05:48:10.414Z,100546.09
2022-09-20T05:50:55.732Z,100532.19
2022-09-20T05:53:38.122Z,100546.88
2022-09-20T05:56:10.738Z,100547.59
2022-09-20T05:58:58.336Z,100539.44
2022-09-20T06:01:40.742Z,100549.00
2022-09-20T06:04:21.514Z,100548.75
2022-09-20T06:07:07.008Z,100555.66
2022-09-20T06:10:01.223Z,100561.94
2022-09-20T06:12:42.990Z,100559.53
2022-09-20T06:15:21.917Z,100558.25
2022-09-20T06:18:11.375Z,100558.13
2022-09-20T06:21:05.954Z,100558.03
2022-09-20T06:23:35.218Z,100559.75
2022-09-20T06:26:07.813Z,100546.84
2022-09-20T06:28:46.034Z,100549.44
2022-09-20T06:31:12.967Z,100533.50
2022-09-20T06:33:52.916Z,100547.91
2022-09-20T06:36:44.438Z,100544.12
2022-09-20T06:39:51.336Z,100539.53
2022-09-20T06:42:18.153Z,100528.94
2022-09-20T06:44:44.976Z,100540.03
2022-09-20T06:47:13.158Z,100539.31
2022-09-20T06:49:42.372Z,100535.00
2022-09-20T06:52:14.138Z,100531.59
2022-09-20T06:54:45.674Z,100525.53
2022-09-20T06:57:18.422Z,100531.34
2022-09-20T06:59:45.733Z,100541.66
2022-09-20T07:02:12.546Z,100538.09
2022-09-20T07:04:40.022Z,100535.34
2022-09-20T07:07:09.599Z,100547.12
2022-09-20T07:09:36.834Z,100551.34
2022-09-20T07:12:03.823Z,100544.12
2022-09-20T07:14:31.113Z,100540.91
2022-09-20T07:16:57.877Z,100540.25
2022-09-20T07:19:24.858Z,100539.72
2022-09-20T07:21:51.708Z,100541.13
2022-09-20T07:24:18.546Z,100548.94
2022-09-20T07:27:00.415Z,100548.13
2022-09-20T07:29:28.126Z,100540.66
2022-09-20T07:31:56.197Z,100540.88
2022-09-20T07:34:22.971Z,100537.84
2022-09-20T07:36:53.289Z,100540.53
2022-09-20T07:39:20.127Z,100545.19
2022-09-20T07:41:48.639Z,100544.31
2022-09-20T07:44:22.122Z,100543.09
2022-09-20T07:46:53.297Z,100554.72
2022-09-20T07:49:21.941Z,100547.66
2022-09-20T07:51:49.815Z,100557.94
2022-09-20T07:54:16.905Z,100561.69
2022-09-20T07:56:44.826Z,100551.31
2022-09-20T07:59:13.184Z,100561.22
2022-09-20T08:01:40.805Z,100566.00
2022-09-20T08:04:08.890Z,100565.66
2022-09-20T08:06:40.365Z,100561.97
2022-09-20T08:09:10.930Z,100593.66
2022-09-20T08:11:40.561Z,100585.31
2022-09-20T08:14:09.070Z,100588.38
2022-09-20T08:16:48.685Z,100598.69
2022-09-20T08:19:17.551Z,100586.78
2022-09-20T08:21:44.830Z,100598.28
2022-09-20T08:24:11.801Z,100587.78
2022-09-20T08:26:38.685Z,100588.25
2022-09-20T08:29:06.092Z,100582.59
2022-09-20T08:31:36.844Z,100588.63
2022-09-20T08:34:06.466Z,100591.91
2022-09-20T08:36:36.774Z,100599.56
2022-09-20T08:42:43.839Z,100596.34
2022-09-20T08:45:33.769Z,100598.06
2022-09-20T08:48:05.624Z,100597.59
2022-09-20T08:50:34.238Z,100597.69
2022-09-20T08:53:05.117Z,100593.03
2022-09-20T08:55:40.185Z,100587.62
2022-09-20T08:58:11.806Z,100580.81
2022-09-20T09:00:46.778Z,100568.87
2022-09-20T09:03:16.899Z,100561.94
2022-09-20T09:05:52.825Z,100549.13
2022-09-20T09:08:27.304Z,100558.00
2022-09-20T09:10:57.073Z,100559.50
2022-09-20T09:13:32.329Z,100548.81
2022-09-20T09:16:02.798Z,100550.50
2022-09-20T09:18:36.585Z,100554.28
2022-09-20T09:21:07.717Z,100555.16
2022-09-20T09:23:49.832Z,100568.25
2022-09-20T09:26:22.667Z,100569.69
2022-09-20T09:29:12.526Z,100561.06
2022-09-20T09:31:39.846Z,100528.63
2022-09-20T09:34:33.444Z,100526.91
2022-09-20T09:37:00.270Z,100550.88
2022-09-20T09:39:30.152Z,100534.97
2022-09-20T09:42:01.139Z,100526.13
2022-09-20T09:44:35.562Z,100516.41
2022-09-20T09:47:02.409Z,100513.19
2022-09-20T09:49:36.941Z,100505.97
2022-09-20T09:52:15.801Z,100524.44
2022-09-20T09:54:51.421Z,100518.34
2022-09-20T09:57:28.837Z,100514.66
2022-09-20T10:00:20.984Z,100538.97
2022-09-20T10:03:10.365Z,100536.50
2022-09-20T10:05:55.813Z,100532.06
2022-09-20T10:08:37.375Z,100525.06
2022-09-20T10:11:30.088Z,100526.28
2022-09-20T10:14:29.615Z,100526.75
2022-09-20T10:17:05.262Z,100522.22
2022-09-20T10:19:46.980Z,100509.97
2022-09-20T10:23:06.738Z,100508.63
2022-09-20T10:25:50.004Z,100527.06
2022-09-20T10:28:54.516Z,100513.41
2022-09-20T10:31:54.547Z,100500.38
2022-09-20T10:34:36.595Z,100520.31
2022-09-20T10:37:03.980Z,100497.94
2022-09-20T10:39:34.547Z,100519.53
2022-09-20T10:43:08.291Z,100512.06
2022-09-20T10:46:14.395Z,100494.94
2022-09-20T10:48:53.011Z,100510.34
2022-09-20T10:52:09.524Z,100485.66
2022-09-20T10:54:54.926Z,100505.41
2022-09-20T10:57:51.550Z,100500.94
2022-09-20T11:00:21.364Z,100487.53
2022-09-20T11:03:21.881Z,100468.66
2022-09-20T11:05:54.753Z,100455.16
2022-09-20T11:08:26.305Z,100467.81
2022-09-20T11:10:55.860Z,100467.97
2022-09-20T11:13:29.809Z,100475.25
2022-09-20T11:16:02.779Z,100462.78
2022-09-20T11:18:45.621Z,100464.50
2022-09-20T11:21:20.022Z,100457.44
2022-09-20T11:23:59.665Z,100480.94
2022-09-20T11:26:31.361Z,100485.28
2022-09-20T11:29:07.960Z,100475.38
2022-09-20T11:31:41.590Z,100487.38
2022-09-20T11:34:17.235Z,100486.12
2022-09-20T11:36:52.213Z,100472.50
2022-09-20T11:39:51.662Z,100468.88
2022-09-20T11:42:21.110Z,100458.69
2022-09-20T11:44:47.932Z,100461.00
2022-09-20T11:47:53.334Z,100449.19
2022-09-20T11:50:45.217Z,100474.09
2022-09-20T11:53:50.746Z,100488.69
2022-09-20T11:56:28.017Z,100484.50
2022-09-20T11:58:59.024Z,100460.25
2022-09-20T12:01:38.053Z,100468.69
2022-09-20T12:04:39.010Z,100466.66
2022-09-20T12:07:18.206Z,100458.75
2022-09-20T12:10:03.536Z,100463.78
2022-09-20T12:12:42.127Z,100467.06
2022-09-20T12:15:27.401Z,100450.78
2022-09-20T12:17:57.482Z,100447.37
2022-09-20T12:20:34.681Z,100444.28
2022-09-20T12:23:42.279Z,100468.56
2022-09-20T12:26:21.540Z,100436.44
2022-09-20T12:28:51.729Z,100439.84
2022-09-20T12:31:18.783Z,100439.53
2022-09-20T12:34:03.265Z,100425.50
2022-09-20T12:36:36.167Z,100424.94
2022-09-20T12:39:12.183Z,100420.37
2022-09-20T12:41:50.155Z,100429.25
2022-09-20T12:44:32.161Z,100415.38
2022-09-20T12:47:06.008Z,100406.63
2022-09-20T12:50:07.160Z,100408.47
2022-09-20T12:53:09.298Z,100421.69
2022-09-20T12:55:47.240Z,100427.41
2022-09-20T12:58:16.909Z,100438.41
2022-09-20T13:00:52.290Z,100442.19
2022-09-20T13:03:27.105Z,100444.41
2022-09-20T13:06:06.558Z,100434.69
2022-09-20T13:08:39.928Z,100426.16
2022-09-20T13:11:06.901Z,100445.03
2022-09-20T13:13:42.362Z,100434.59
2022-09-20T13:16:26.617Z,100454.69
2022-09-20T13:19:01.088Z,100464.78
2022-09-20T13:21:28.305Z,100450.09
2022-09-20T13:23:55.393Z,100457.50
2022-09-20T13:26:49.054Z,100453.97
2022-09-20T13:29:45.029Z,100473.31
2022-09-20T13:32:18.890Z,100509.97
2022-09-20T13:34:45.829Z,100476.41
2022-09-20T13:37:21.751Z,100480.97
2022-09-20T13:39:53.756Z,100484.59
2022-09-20T13:42:20.897Z,100482.69
2022-09-20T13:44:48.385Z,100480.31
2022-09-20T13:47:22.606Z,100485.34
2022-09-20T13:49:50.522Z,100490.84
2022-09-20T13:52:26.252Z,100495.50
2022-09-20T13:54:55.115Z,100483.59
2022-09-20T13:57:26.054Z,100472.97
2022-09-20T13:59:54.129Z,100465.88
2022-09-20T14:02:31.239Z,100477.37
2022-09-20T14:05:00.694Z,100472.16
2022-09-20T14:07:28.332Z,100473.81
2022-09-20T14:09:56.664Z,100477.22
2022-09-20T14:12:24.418Z,100486.62
2022-09-20T14:14:51.861Z,100490.22
2022-09-20T14:17:20.968Z,100510.25
2022-09-20T14:19:49.810Z,100513.94
2022-09-20T14:22:20.570Z,100526.22
2022-09-20T14:25:01.374Z,100519.31
2022-09-20T14:27:31.067Z,100526.34
2022-09-20T14:29:57.963Z,100530.16
2022-09-20T14:32:28.815Z,100540.62
2022-09-20T14:34:55.967Z,100555.34
2022-09-20T14:37:25.856Z,100560.72
2022-09-20T14:39:57.705Z,100559.37
2022-09-20T14:42:34.913Z,100541.72
2022-09-20T14:45:05.624Z,100553.50
2022-09-20T14:47:38.666Z,100552.91
2022-09-20T14:50:23.469Z,100551.66
2022-09-20T14:53:00.678Z,100560.13
2022-09-20T14:55:36.432Z,100559.41
2022-09-20T14:58:10.512Z,100563.38
2022-09-20T15:00:58.061Z,100571.81
2022-09-20T15:03:31.905Z,100584.22
2022-09-20T15:05:58.799Z,100583.44
2022-09-20T15:08:26.205Z,100584.97
2022-09-20T15:10:53.028Z,100584.47
2022-09-20T15:13:19.841Z,100596.56
2022-09-20T15:15:52.208Z,100601.59
2022-09-20T15:18:22.730Z,100615.69
2022-09-20T15:20:50.708Z,100612.12
2022-09-20T15:23:17.875Z,100610.75
2022-09-20T15:25:44.812Z,100606.37
2022-09-20T15:28:18.458Z,100593.00
2022-09-20T15:30:46.943Z,100584.81
2022-09-20T15:33:14.436Z,100590.06
2022-09-20T15:35:42.096Z,100593.00
2022-09-20T15:38:11.664Z,100599.00
2022-09-20T15:40:40.678Z,100610.03
2022-09-20T15:43:09.466Z,100612.72
2022-09-20T15:45:37.021Z,100616.34
2022-09-20T15:48:04.133Z,100625.06
2022-09-20T15:50:31.135Z,100622.91
2022-09-20T15:53:00.140Z,100624.91
2022-09-20T15:55:27.113Z,100631.81
2022-09-20T15:57:53.993Z,100619.16
2022-09-20T16:00:20.985Z,100643.41
2022-09-20T16:02:50.728Z,100641.66
2022-09-20T16:05:17.680Z,100646.72
2022-09-20T16:07:45.901Z,100647.19
2022-09-20T16:10:12.705Z,100649.25
2022-09-20T16:12:39.492Z,100652.97
2022-09-20T16:15:07.005Z,100662.38
2022-09-20T16:18:03.277Z,100656.03
2022-09-20T16:20:30.119Z,100661.41
2022-09-20T16:22:56.953Z,100670.87
2022-09-20T16:25:23.733Z,100665.03
2022-09-20T16:27:50.593Z,100670.44
2022-09-20T16:30:17.616Z,100656.00
2022-09-20T16:32:44.501Z,100653.63
2022-09-20T16:35:11.470Z,100649.75
2022-09-20T16:37:39.356Z,100665.41
2022-09-20T16:40:07.097Z,100673.91
2022-09-20T16:42:33.935Z,100675.72
2022-09-20T16:45:00.727Z,100672.19
2022-09-20T16:47:27.501Z,100666.03
2022-09-20T16:49:54.799Z,100664.84
2022-09-20T16:52:21.710Z,100671.09
2022-09-20T16:54:48.696Z,100668.91
2022-09-20T16:57:16.103Z,100680.22
2022-09-20T16:59:43.230Z,100658.88
2022-09-20T17:02:12.111Z,100679.12
2022-09-20T17:04:39.248Z,100676.56
2022-09-20T17:07:06.125Z,100669.75
2022-09-20T17:09:33.013Z,100670.28
2022-09-20T17:12:01.245Z,100671.44
2022-09-20T17:14:28.090Z,100682.69
2022-09-20T17:16:56.510Z,100682.47
2022-09-20T17:19:23.324Z,100693.72
2022-09-20T17:21:50.982Z,100686.41
2022-09-20T17:24:22.234Z,100685.44
2022-09-20T17:26:50.450Z,100705.53
2022-09-20T17:29:18.921Z,100701.72
2022-09-20T17:31:53.936Z,100707.09
2022-09-20T17:34:22.187Z,100699.44
2022-09-20T17:36:50.462Z,100711.91
2022-09-20T17:39:17.708Z,100720.28
2022-09-20T17:41:46.516Z,100715.97
2022-09-20T17:44:13.984Z,100715.19
2022-09-20T17:46:49.554Z,100726.00
2022-09-20T17:49:21.165Z,100724.69
2022-09-20T17:51:52.826Z,100731.69
2022-09-20T17:54:20.192Z,100733.34
2022-09-20T17:56:49.270Z,100724.69
2022-09-20T17:59:17.484Z,100736.22
2022-09-20T18:01:45.807Z,100734.84
2022-09-20T18:04:13.112Z,100738.50
2022-09-20T18:06:49.122Z,100746.94
2022-09-20T18:09:18.464Z,100750.09
2022-09-20T18:11:49.340Z,100764.00
2022-09-20T18:14:21.194Z,100757.00
2022-09-20T18:16:48.025Z,100768.31
2022-09-20T18:19:16.156Z,100761.69
2022-09-20T18:21:43.653Z,100766.28
2022-09-20T18:24:11.350Z,100770.88
2022-09-20T18:26:38.962Z,100768.87
2022-09-20T18:29:13.773Z,100772.44
2022-09-20T18:31:47.452Z,100773.00
2022-09-20T18:34:18.828Z,100772.03
2022-09-20T18:36:53.072Z,100770.69
2022-09-20T18:39:21.814Z,100770.88
2022-09-20T18:41:50.442Z,100773.75
2022-09-20T18:44:18.538Z,100778.19
2022-09-20T18:46:46.614Z,100775.38
2022-09-20T18:49:14.923Z,100780.50
2022-09-20T18:51:42.971Z,100777.59
2022-09-20T18:54:11.239Z,100780.28
2022-09-20T18:56:42.847Z,100780.13
2022-09-20T18:59:18.135Z,100791.94
2022-09-20T19:01:52.687Z,100791.38
2022-09-20T19:04:38.280Z,100798.91
2022-09-20T19:07:29.829Z,100798.91
2022-09-20T19:10:08.851Z,100805.59
2022-09-20T19:12:49.736Z,100801.19
2022-09-20T19:15:53.695Z,100793.81
2022-09-20T19:18:26.520Z,100798.09
2022-09-20T19:21:40.964Z,100801.62
2022-09-20T19:24:10.337Z,100802.97
2022-09-20T19:26:38.704Z,100805.03
2022-09-20T19:29:21.784Z,100791.44
2022-09-20T19:31:50.451Z,100792.59
2022-09-20T19:34:32.106Z,100796.50
2022-09-20T19:37:36.629Z,100803.06
2022-09-20T19:40:35.097Z,100803.06
2022-09-20T19:43:44.737Z,100796.75
2022-09-20T19:46:20.934Z,100803.25
2022-09-20T19:49:03.203Z,100811.47
2022-09-20T19:51:32.197Z,100798.81
2022-09-20T19:53:59.367Z,100815.78
2022-09-20T19:56:29.661Z,100808.78
2022-09-20T19:58:56.855Z,100813.19
2022-09-20T20:01:25.795Z,100817.69
2022-09-20T20:03:53.948Z,100827.72
2022-09-20T20:06:29.328Z,100834.88
2022-09-20T20:09:45.765Z,100834.13
2022-09-20T20:12:35.830Z,100836.87
2022-09-20T20:15:35.697Z,100836.53
2022-09-20T20:18:24.406Z,100837.66
2022-09-20T20:20:52.645Z,100822.16
2022-09-20T20:23:47.847Z,100844.00
2022-09-20T20:26:24.467Z,100839.38
2022-09-20T20:28:52.707Z,100837.50
2022-09-20T20:31:20.335Z,100840.25
2022-09-20T20:33:47.219Z,100844.06
2022-09-20T20:36:14.183Z,100837.66
2022-09-20T20:38:41.782Z,100846.03
2022-09-20T20:41:11.052Z,100845.28
2022-09-20T20:43:40.175Z,100836.00
2022-09-20T20:46:09.148Z,100835.81
2022-09-20T20:48:36.903Z,100842.16
2022-09-20T20:51:12.042Z,100849.41
2022-09-20T20:53:41.396Z,100851.59
2022-09-20T20:56:10.483Z,100852.62
2022-09-20T20:58:40.760Z,100857.28
2022-09-20T21:01:13.299Z,100857.41
2022-09-20T21:03:41.684Z,100864.13
2022-09-20T21:06:10.246Z,100860.97
2022-09-20T21:08:38.786Z,100870.91
2022-09-20T21:11:08.687Z,100878.16
2022-09-20T21:13:35.944Z,100866.66
2022-09-20T21:16:07.056Z,100865.03
2022-09-20T21:18:35.016Z,100866.91
2022-09-20T21:21:03.087Z,100868.84
2022-09-20T21:23:33.991Z,100871.81
2022-09-20T21:26:07.747Z,100879.16
2022-09-20T21:28:36.831Z,100877.69
2022-09-20T21:31:07.623Z,100882.59
2022-09-20T21:33:39.634Z,100894.19
2022-09-20T21:36:09.054Z,100897.28
2022-09-20T21:38:36.235Z,100903.72
2022-09-20T21:41:26.438Z,100904.09
2022-09-20T21:43:55.436Z,100908.25
2022-09-20T21:46:28.477Z,100902.75
2022-09-20T21:49:06.021Z,100892.31
2022-09-20T21:51:33.321Z,100885.00
2022-09-20T21:57:47.363Z,100897.50
2022-09-20T22:00:14.837Z,100895.88
2022-09-20T22:02:41.827Z,100899.09
2022-09-20T22:05:08.770Z,100893.97
2022-09-20T22:07:35.585Z,100912.09
2022-09-20T22:10:02.428Z,100902.28
2022-09-20T22:12:29.589Z,100910.88
2022-09-20T22:14:56.351Z,100900.66
2022-09-20T22:17:23.275Z,100908.44
2022-09-20T22:19:50.059Z,100906.62
2022-09-20T22:22:16.866Z,100909.72
2022-09-20T22:24:43.688Z,100913.81
2022-09-20T22:27:10.440Z,100910.19
2022-09-20T22:29:37.204Z,100916.59
2022-09-20T22:32:04.075Z,100923.16
2022-09-20T22:34:30.837Z,100911.28
2022-09-20T22:36:57.569Z,100918.09
2022-09-20T22:39:24.396Z,100912.16
2022-09-20T22:41:51.961Z,100918.84
2022-09-20T22:44:18.731Z,100911.47
2022-09-20T22:46:45.505Z,100912.25
2022-09-20T22:49:12.575Z,100911.94
2022-09-20T22:51:39.477Z,100904.66
2022-09-20T22:54:08.843Z,100912.63
2022-09-20T22:56:36.264Z,100907.63
2022-09-20T22:59:08.086Z,100913.00
2022-09-20T23:01:36.977Z,100910.97
2022-09-20T23:04:07.757Z,100909.84
2022-09-20T23:06:37.771Z,100914.44
2022-09-20T23:09:07.872Z,100915.84
2022-09-20T23:11:35.315Z,100912.78
2022-09-20T23:14:05.081Z,100915.37
2022-09-20T23:16:36.781Z,100905.13
2022-09-20T23:19:05.485Z,100911.00
2022-09-20T23:21:33.408Z,100905.25
2022-09-20T23:24:02.164Z,100916.62
2022-09-20T23:26:31.447Z,100919.38
2022-09-20T23:29:07.002Z,100917.44
2022-09-20T23:31:36.179Z,100917.56
2022-09-20T23:34:04.794Z,100916.88
2022-09-20T23:36:33.532Z,100910.00
2022-09-20T23:39:00.421Z,100915.69
2022-09-20T23:41:28.219Z,100908.44
2022-09-20T23:43:55.403Z,100913.31
2022-09-20T23:46:23.982Z,100919.31
2022-09-20T23:48:51.226Z,100909.78
2022-09-20T23:51:20.539Z,100918.22
2022-09-20T23:53:47.471Z,100919.78
2022-09-20T23:56:14.581Z,100902.31
2022-09-20T23:58:43.084Z,100918.47
